Time;durP1;ratioP1;P1;durP2;ratioP2;P2;SDS_P1;SDS_P2;PMS_P1;PMS_P2;Temp;Humidity;BMP_temperature;BMP_pressure;BME280_temperature;BME280_humidity;BME280_pressure;Samples;Min_cycle;Max_cycle;Signal;HPM_P1;HPM_P2
2023/08/15 00:01:11;;;;;;;7.20;6.60;;;;;;;23.94;65.82;96160.16;5069990;28;20181;-73
2023/08/15 00:03:37;;;;;;;8.03;7.20;;;;;;;23.95;66.00;96156.47;5070181;28;20181;-71
2023/08/15 00:06:02;;;;;;;8.47;7.77;;;;;;;24.03;65.39;96159.22;5070259;28;20174;-70
2023/08/15 00:08:28;;;;;;;11.63;7.90;;;;;;;24.00;65.55;96158.69;5070118;28;20197;-72
2023/08/15 00:10:53;;;;;;;8.67;7.40;;;;;;;23.99;65.43;96157.00;5069801;28;20198;-72
2023/08/15 00:13:19;;;;;;;8.67;7.67;;;;;;;23.95;65.31;96161.00;5087794;28;20204;-70
2023/08/15 00:15:44;;;;;;;8.97;8.07;;;;;;;23.88;65.57;96164.31;5090388;28;20264;-69
2023/08/15 00:18:09;;;;;;;8.23;7.13;;;;;;;23.87;65.88;96165.28;5089845;28;20206;-71
2023/08/15 00:20:35;;;;;;;8.97;7.87;;;;;;;23.84;66.16;96165.63;5089842;28;20169;-72
2023/08/15 00:23:00;;;;;;;8.17;7.47;;;;;;;23.76;66.25;96170.88;5089986;28;20736;-71
2023/08/15 00:25:26;;;;;;;12.13;6.93;;;;;;;23.64;66.71;96166.75;5090019;28;20674;-70
2023/08/15 00:27:51;;;;;;;8.50;7.63;;;;;;;23.67;66.64;96169.13;5089766;28;20219;-71
2023/08/15 00:30:17;;;;;;;8.43;7.60;;;;;;;23.74;66.47;96167.56;5089566;28;20252;-71
2023/08/15 00:32:42;;;;;;;8.27;7.57;;;;;;;23.61;66.84;96169.72;5090027;28;20161;-72
2023/08/15 00:35:10;;;;;;;7.13;6.47;;;;;;;23.61;66.94;96165.22;5090012;28;20269;-71
2023/08/15 00:37:35;;;;;;;8.03;6.47;;;;;;;23.57;67.46;96163.00;5089887;28;20280;-71
2023/08/15 00:40:01;;;;;;;8.00;7.20;;;;;;;23.57;67.14;96157.63;5089406;28;20514;-70
2023/08/15 00:42:27;;;;;;;11.20;7.43;;;;;;;23.64;66.90;96161.38;5089735;28;20192;-71
2023/08/15 00:44:52;;;;;;;8.93;7.60;;;;;;;23.58;66.79;96156.66;5089634;28;20173;-71
2023/08/15 00:47:19;;;;;;;8.00;7.20;;;;;;;23.64;66.55;96161.38;5089684;28;20161;-70
2023/08/15 00:49:45;;;;;;;9.10;7.97;;;;;;;23.62;66.63;96164.25;5089220;28;20536;-71
2023/08/15 00:52:12;;;;;;;7.93;7.13;;;;;;;23.60;66.52;96158.19;5088632;28;20436;-70
2023/08/15 00:54:39;;;;;;;7.83;6.93;;;;;;;23.62;66.70;96156.19;5089556;28;20407;-73
2023/08/15 00:57:06;;;;;;;8.67;7.80;;;;;;;23.65;66.83;96149.69;5089332;28;20458;-71
2023/08/15 00:59:32;;;;;;;11.33;7.57;;;;;;;23.62;66.71;96145.47;5088898;28;20487;-71
2023/08/15 01:02:02;;;;;;;10.93;7.43;;;;;;;23.58;67.19;96153.97;5089283;28;20580;-71
2023/08/15 01:04:28;;;;;;;13.40;7.67;;;;;;;23.47;67.23;96163.06;5089092;28;20403;-71
2023/08/15 01:06:54;;;;;;;9.10;8.20;;;;;;;23.46;67.59;96164.91;5089189;28;20408;-70
2023/08/15 01:09:19;;;;;;;8.07;7.37;;;;;;;23.50;67.41;96159.25;5089067;28;20954;-69
2023/08/15 01:12:07;;;;;;;8.40;7.60;;;;;;;23.46;67.63;96161.41;5084699;28;20714;-71
2023/08/15 01:14:50;;;;;;;7.73;7.03;;;;;;;23.42;67.56;96168.88;5069215;28;20170;-70
2023/08/15 01:17:31;;;;;;;9.00;7.67;;;;;;;23.48;67.47;96161.22;5069601;28;20423;-71
2023/08/15 01:19:58;;;;;;;8.17;7.47;;;;;;;23.36;67.90;96165.97;5069594;28;20424;-71
2023/08/15 01:22:28;;;;;;;11.00;7.23;;;;;;;23.35;67.99;96162.47;5070729;28;21088;-71
2023/08/15 01:24:54;;;;;;;9.40;7.60;;;;;;;23.32;67.91;96168.13;5070127;28;20440;-71
2023/08/15 01:27:19;;;;;;;8.17;7.47;;;;;;;23.29;68.18;96165.72;5068847;28;20400;-72
2023/08/15 01:29:45;;;;;;;10.37;7.90;;;;;;;23.13;68.46;96161.06;5068336;28;20431;-70
2023/08/15 01:32:32;;;;;;;9.83;7.47;;;;;;;23.09;68.75;96154.34;5068615;28;20174;-71
2023/08/15 01:35:07;;;;;;;7.77;6.93;;;;;;;23.15;68.57;96144.84;5068529;28;20181;-71
2023/08/15 01:37:35;;;;;;;10.80;8.43;;;;;;;23.20;68.56;96143.41;5069088;28;21113;-72
2023/08/15 01:40:03;;;;;;;8.57;7.87;;;;;;;23.17;68.59;96161.59;5079288;28;20765;-70
2023/08/15 01:42:31;;;;;;;9.30;8.27;;;;;;;23.19;68.43;96151.59;5087206;28;20404;-69
2023/08/15 01:44:58;;;;;;;10.00;8.53;;;;;;;23.18;68.28;96152.59;5088511;28;20411;-72
2023/08/15 01:47:23;;;;;;;8.83;7.93;;;;;;;23.19;68.53;96141.72;5087984;28;20451;-71
2023/08/15 01:49:49;;;;;;;10.03;9.00;;;;;;;23.17;68.55;96140.19;5085302;28;20428;-71
2023/08/15 01:52:14;;;;;;;8.40;7.70;;;;;;;23.14;68.60;96141.31;5077649;28;20811;-71
2023/08/15 01:54:40;;;;;;;8.93;7.67;;;;;;;23.12;68.62;96139.81;5072567;28;20174;-73
2023/08/15 01:57:05;;;;;;;10.50;8.67;;;;;;;23.13;68.74;96144.19;5071011;28;20652;-72
2023/08/15 01:59:31;;;;;;;8.57;7.77;;;;;;;23.15;68.34;96140.34;5069957;28;20186;-72
2023/08/15 02:01:56;;;;;;;10.90;8.33;;;;;;;23.15;68.40;96148.38;5070164;28;20262;-71
2023/08/15 02:04:22;;;;;;;8.17;7.47;;;;;;;23.13;68.16;96145.00;5069226;28;20166;-72
2023/08/15 02:06:47;;;;;;;8.37;7.43;;;;;;;23.09;68.25;96137.44;5071500;28;20257;-72
2023/08/15 02:09:13;;;;;;;13.63;7.80;;;;;;;23.06;68.48;96151.13;5071900;28;20269;-72
2023/08/15 02:11:38;;;;;;;9.20;7.90;;;;;;;23.02;68.58;96137.19;5075366;28;20166;-72
2023/08/15 02:14:03;;;;;;;8.70;7.80;;;;;;;23.04;68.60;96137.88;5090933;28;20170;-72
2023/08/15 02:16:29;;;;;;;12.57;7.80;;;;;;;23.02;68.32;96142.53;5090420;28;20165;-73
2023/08/15 02:18:55;;;;;;;11.47;7.57;;;;;;;22.93;68.76;96141.56;5090349;28;20564;-72
2023/08/15 02:21:20;;;;;;;8.60;7.03;;;;;;;22.71;69.83;96139.31;5090094;28;20248;-72
2023/08/15 02:23:46;;;;;;;8.40;7.63;;;;;;;22.73;69.68;96134.66;5088998;28;20573;-71
2023/08/15 02:26:11;;;;;;;8.00;7.30;;;;;;;22.72;69.60;96141.81;5089036;28;20169;-71
2023/08/15 02:28:36;;;;;;;9.63;8.13;;;;;;;22.79;69.56;96139.41;5088445;28;20559;-71
2023/08/15 02:31:04;;;;;;;8.53;7.80;;;;;;;22.59;70.65;96136.00;5087818;28;20175;-72
2023/08/15 02:33:30;;;;;;;13.57;8.27;;;;;;;22.54;71.12;96132.94;5088107;28;20219;-71
2023/08/15 02:35:56;;;;;;;11.80;9.10;;;;;;;22.47;72.34;96142.53;5088234;28;20411;-72
2023/08/15 02:38:21;;;;;;;17.63;9.67;;;;;;;22.60;71.95;96138.50;5088764;28;20204;-70
2023/08/15 02:40:47;;;;;;;11.30;9.70;;;;;;;22.59;72.05;96136.00;5088480;28;20195;-72
2023/08/15 02:43:13;;;;;;;11.10;10.00;;;;;;;22.50;73.14;96137.72;5087670;28;20223;-71
2023/08/15 02:45:38;;;;;;;11.93;10.60;;;;;;;22.48;73.27;96139.69;5087653;28;20442;-72
2023/08/15 02:48:04;;;;;;;10.97;9.90;;;;;;;22.55;73.06;96138.13;5087443;28;20161;-70
2023/08/15 02:50:29;;;;;;;12.37;11.23;;;;;;;22.61;73.10;96145.56;5087099;28;20583;-71
2023/08/15 02:52:55;;;;;;;16.77;11.40;;;;;;;22.63;73.14;96145.41;5087361;28;20165;-70
2023/08/15 02:55:20;;;;;;;10.53;9.63;;;;;;;22.49;73.81;96140.53;5087452;28;20554;-71
2023/08/15 02:57:46;;;;;;;11.07;10.17;;;;;;;22.51;73.85;96151.94;5087533;28;20246;-70
2023/08/15 03:00:12;;;;;;;12.20;10.80;;;;;;;22.49;74.08;96140.53;5086900;28;20192;-72
2023/08/15 03:02:39;;;;;;;10.70;9.80;;;;;;;22.43;74.17;96147.31;5087711;28;20472;-71
2023/08/15 03:05:05;;;;;;;14.23;12.40;;;;;;;22.47;73.98;96143.38;5087321;28;20173;-72
2023/08/15 03:07:30;;;;;;;11.70;10.70;;;;;;;22.55;73.55;96145.31;5087512;28;20404;-71
2023/08/15 03:09:56;;;;;;;11.67;10.57;;;;;;;22.47;73.91;96154.06;5094750;28;20246;-70
2023/08/15 03:12:21;;;;;;;11.97;10.43;;;;;;;22.31;74.09;96141.31;5088524;28;20193;-72
2023/08/15 03:14:46;;;;;;;13.33;11.67;;;;;;;22.49;73.92;96138.72;5077399;28;20178;-72
2023/08/15 03:17:13;;;;;;;14.03;10.53;;;;;;;22.52;73.72;96137.59;5071114;28;20174;-71
2023/08/15 03:19:39;;;;;;;12.33;9.93;;;;;;;22.43;73.93;96139.31;5070854;28;20226;-70
2023/08/15 03:22:07;;;;;;;13.33;11.13;;;;;;;22.57;73.72;96140.66;5070942;28;20459;-71
2023/08/15 03:24:32;;;;;;;12.37;10.90;;;;;;;22.54;73.63;96141.78;5071191;28;20185;-70
2023/08/15 03:26:58;;;;;;;15.50;11.57;;;;;;;22.46;74.18;96130.13;5070773;28;20397;-71
2023/08/15 03:29:23;;;;;;;12.33;10.30;;;;;;;22.45;74.32;96131.13;5070693;28;20743;-71
2023/08/15 03:31:49;;;;;;;12.33;10.97;;;;;;;22.43;74.49;96128.59;5070930;28;20193;-72
2023/08/15 03:34:14;;;;;;;11.57;10.37;;;;;;;22.46;74.34;96132.81;5070855;28;20269;-69
2023/08/15 03:36:40;;;;;;;12.47;9.87;;;;;;;22.51;74.07;96134.06;5070852;28;20175;-71
2023/08/15 03:39:05;;;;;;;13.80;12.40;;;;;;;22.53;73.74;96137.41;5070224;28;20209;-71
2023/08/15 03:41:31;;;;;;;14.20;11.70;;;;;;;22.48;74.32;96145.03;5070511;28;20415;-71
2023/08/15 03:43:56;;;;;;;12.97;11.27;;;;;;;22.52;74.20;96138.41;5070419;28;20555;-70
2023/08/15 03:46:22;;;;;;;13.13;11.87;;;;;;;22.53;74.10;96142.75;5070934;28;20177;-74
2023/08/15 03:48:47;;;;;;;12.30;11.10;;;;;;;22.55;74.15;96143.47;5071203;28;20663;-71
2023/08/15 03:51:13;;;;;;;12.90;11.33;;;;;;;22.50;74.31;96147.59;5071280;28;20796;-72
2023/08/15 03:53:38;;;;;;;14.00;12.50;;;;;;;22.50;74.24;96148.41;5071637;28;20192;-71
2023/08/15 03:56:03;;;;;;;13.57;12.37;;;;;;;22.49;74.51;96154.75;5071257;28;20487;-70
2023/08/15 03:58:29;;;;;;;13.93;12.47;;;;;;;22.40;74.78;96163.66;5071105;28;20816;-72
2023/08/15 04:00:55;;;;;;;12.87;11.60;;;;;;;22.47;74.40;96159.41;5070496;28;20166;-72
2023/08/15 04:03:20;;;;;;;19.20;12.53;;;;;;;22.51;74.35;96163.50;5070426;28;20170;-72
2023/08/15 04:05:47;;;;;;;13.40;12.10;;;;;;;22.51;74.25;96163.50;5070306;28;20178;-72
2023/08/15 04:08:14;;;;;;;19.83;11.80;;;;;;;22.48;74.21;96168.28;5070336;28;20190;-72
2023/08/15 04:10:40;;;;;;;19.43;12.87;;;;;;;22.46;74.12;96168.41;5070202;28;20937;-71
2023/08/15 04:13:11;;;;;;;12.40;10.70;;;;;;;22.49;72.90;96170.81;5086630;28;20415;-71
2023/08/15 04:15:38;;;;;;;13.37;9.80;;;;;;;22.52;72.10;96173.19;5091215;28;20201;-72
2023/08/15 04:18:08;;;;;;;15.00;9.60;;;;;;;22.49;72.02;96173.47;5090070;28;20579;-70
2023/08/15 04:20:41;;;;;;;10.93;9.43;;;;;;;22.48;71.81;96178.97;5089972;28;20554;-70
2023/08/15 04:23:07;;;;;;;9.53;8.60;;;;;;;22.51;71.15;96182.22;5090228;28;20475;-71
2023/08/15 04:25:34;;;;;;;12.80;9.47;;;;;;;22.46;70.95;96175.59;5089948;28;20405;-71
2023/08/15 04:28:00;;;;;;;10.93;8.53;;;;;;;22.50;70.52;96183.19;5089903;28;20400;-72
2023/08/15 04:30:25;;;;;;;11.57;9.90;;;;;;;22.65;70.05;96177.34;5089843;28;20415;-72
2023/08/15 04:32:51;;;;;;;11.33;8.10;;;;;;;22.67;69.87;96180.72;5089963;28;20176;-72
2023/08/15 04:35:16;;;;;;;14.30;9.90;;;;;;;22.65;69.79;96186.22;5089841;28;20162;-72
2023/08/15 04:37:42;;;;;;;14.30;10.40;;;;;;;22.60;70.02;96185.81;5089785;28;20190;-71
2023/08/15 04:40:12;;;;;;;23.93;10.10;;;;;;;22.55;70.43;96185.41;5089630;28;20285;-71
2023/08/15 04:42:38;;;;;;;27.07;10.03;;;;;;;22.56;70.37;96185.28;5090070;28;20200;-71
2023/08/15 04:45:04;;;;;;;23.47;9.70;;;;;;;22.55;70.16;96182.75;5090060;28;20492;-72
2023/08/15 04:47:29;;;;;;;14.03;8.90;;;;;;;22.57;69.88;96189.63;5090371;28;20261;-71
2023/08/15 04:49:55;;;;;;;34.60;10.27;;;;;;;22.51;69.86;96190.22;5089511;28;20736;-73
2023/08/15 04:52:20;;;;;;;17.97;9.40;;;;;;;22.63;69.43;96201.59;5090310;28;20170;-71
2023/08/15 04:54:46;;;;;;;17.07;10.00;;;;;;;22.46;69.90;96197.81;5089801;28;20169;-73
2023/08/15 04:57:12;;;;;;;18.67;8.90;;;;;;;22.47;69.86;96206.72;5089200;28;20269;-71
2023/08/15 04:59:37;;;;;;;12.17;8.43;;;;;;;22.46;70.03;96199.66;5088840;28;20239;-70
2023/08/15 05:02:03;;;;;;;9.87;8.90;;;;;;;22.46;70.04;96202.34;5089266;28;20411;-71
2023/08/15 05:04:29;;;;;;;11.73;8.40;;;;;;;22.54;69.83;96211.31;5089166;28;20736;-72
2023/08/15 05:06:55;;;;;;;10.47;8.90;;;;;;;22.54;69.75;96214.00;5089054;28;20196;-70
2023/08/15 05:09:20;;;;;;;12.43;8.80;;;;;;;22.57;70.09;96226.22;5088698;28;20426;-72
2023/08/15 05:11:46;;;;;;;11.33;8.87;;;;;;;22.61;69.86;96222.28;5084101;28;20166;-72
2023/08/15 05:14:11;;;;;;;10.03;8.63;;;;;;;22.54;70.32;96215.84;5068726;28;20166;-71
2023/08/15 05:16:37;;;;;;;11.17;7.90;;;;;;;22.51;70.32;96216.09;5068715;28;20245;-72
2023/08/15 05:19:02;;;;;;;16.20;9.73;;;;;;;22.60;70.25;96223.25;5068199;28;20236;-73
2023/08/15 05:21:28;;;;;;;19.37;10.17;;;;;;;22.61;70.38;96223.13;5068578;28;20166;-71
2023/08/15 05:23:53;;;;;;;16.97;8.93;;;;;;;22.67;70.34;96226.19;5068435;28;20171;-71
2023/08/15 05:26:19;;;;;;;9.57;8.37;;;;;;;22.64;70.20;96223.81;5068586;28;20644;-71
2023/08/15 05:28:44;;;;;;;33.57;10.10;;;;;;;22.75;69.68;96224.47;5069512;28;20228;-71
2023/08/15 05:31:09;;;;;;;10.40;8.33;;;;;;;22.68;69.69;96236.75;5069441;28;20302;-71
2023/08/15 05:33:35;;;;;;;19.23;8.63;;;;;;;22.79;69.50;96230.38;5070166;28;20159;-71
2023/08/15 05:36:00;;;;;;;12.93;8.20;;;;;;;22.85;69.01;96226.28;5070017;28;20189;-72
2023/08/15 05:38:26;;;;;;;15.53;9.73;;;;;;;22.79;69.30;96230.38;5068694;28;20209;-71
2023/08/15 05:40:51;;;;;;;15.07;10.60;;;;;;;22.78;69.42;96223.34;5072034;28;20192;-72
2023/08/15 05:43:16;;;;;;;11.37;9.50;;;;;;;22.70;70.18;96224.09;5070366;28;20650;-71
2023/08/15 05:45:45;;;;;;;14.17;9.50;;;;;;;22.85;69.75;96228.94;5071410;28;20257;-69
2023/08/15 05:48:10;;;;;;;14.07;10.37;;;;;;;22.88;69.67;96232.16;5070120;28;20543;-72
2023/08/15 05:50:37;;;;;;;12.80;9.80;;;;;;;22.93;69.83;96234.41;5068416;28;20480;-71
2023/08/15 05:53:02;;;;;;;11.97;10.23;;;;;;;22.95;69.84;96222.53;5068783;28;20173;-71
2023/08/15 05:55:28;;;;;;;13.63;9.83;;;;;;;22.83;70.24;96235.28;5068067;28;20416;-71
2023/08/15 05:57:53;;;;;;;22.77;12.10;;;;;;;22.91;69.96;96236.38;5067806;28;20205;-71
2023/08/15 06:00:18;;;;;;;21.03;11.30;;;;;;;22.91;70.28;96228.34;5067859;28;20695;-70
2023/08/15 06:02:44;;;;;;;14.77;9.53;;;;;;;22.85;70.41;96248.53;5067717;28;20169;-71
2023/08/15 06:05:09;;;;;;;14.03;9.00;;;;;;;22.93;69.96;96243.25;5067551;28;20178;-70
2023/08/15 06:07:35;;;;;;;17.07;9.93;;;;;;;22.95;70.04;96253.81;5067602;28;20197;-72
2023/08/15 06:10:00;;;;;;;21.00;10.57;;;;;;;23.03;69.54;96261.97;5067244;28;20194;-71
2023/08/15 06:12:26;;;;;;;14.17;8.63;;;;;;;23.01;69.79;96258.63;5077847;28;20215;-72
2023/08/15 06:14:51;;;;;;;10.93;9.23;;;;;;;23.06;69.56;96260.88;5087546;28;20162;-71
2023/08/15 06:17:17;;;;;;;10.40;9.30;;;;;;;23.00;69.85;96257.75;5088281;28;20514;-71
2023/08/15 06:19:42;;;;;;;10.00;9.10;;;;;;;23.11;69.38;96254.06;5088259;28;20199;-74
2023/08/15 06:22:08;;;;;;;18.23;9.77;;;;;;;23.20;69.15;96255.03;5087657;28;20169;-70
2023/08/15 06:24:33;;;;;;;8.83;7.90;;;;;;;23.20;68.49;96263.06;5087341;28;20177;-72
2023/08/15 06:26:59;;;;;;;14.20;8.20;;;;;;;23.31;68.26;96265.50;5087474;28;20173;-71
2023/08/15 06:29:25;;;;;;;10.73;8.10;;;;;;;23.44;67.79;96257.13;5087746;28;20255;-71
2023/08/15 06:31:52;;;;;;;20.90;9.70;;;;;;;23.53;67.58;96258.91;5087620;28;20177;-71
2023/08/15 06:34:18;;;;;;;11.70;8.43;;;;;;;23.61;67.01;96268.84;5087906;28;20454;-71
2023/08/15 06:36:43;;;;;;;14.63;8.27;;;;;;;23.68;66.71;96268.09;5087756;28;20919;-71
2023/08/15 06:39:09;;;;;;;17.03;9.67;;;;;;;23.72;66.69;96273.13;5087026;28;20292;-70
2023/08/15 06:41:34;;;;;;;12.57;9.07;;;;;;;23.72;66.47;96284.72;5087621;28;20183;-70
2023/08/15 06:44:00;;;;;;;14.10;9.10;;;;;;;23.76;66.31;96277.22;5087386;28;20545;-71
2023/08/15 06:46:25;;;;;;;19.60;10.20;;;;;;;23.71;67.88;96287.53;5087339;28;20658;-72
2023/08/15 06:48:50;;;;;;;10.30;9.17;;;;;;;23.72;68.43;96289.22;5087322;28;20181;-71
2023/08/15 06:51:16;;;;;;;10.50;9.40;;;;;;;23.76;68.59;96299.50;5086316;28;20546;-72
2023/08/15 06:53:44;;;;;;;15.03;9.63;;;;;;;23.81;68.61;96302.59;5087282;28;20309;-72
2023/08/15 06:56:10;;;;;;;10.57;9.47;;;;;;;23.69;68.85;96298.41;5087824;28;20189;-72
2023/08/15 06:58:35;;;;;;;14.70;12.03;;;;;;;23.80;68.79;96292.03;5087284;28;20485;-70
2023/08/15 07:01:01;;;;;;;18.10;10.60;;;;;;;23.80;68.69;96298.22;5087026;28;20178;-71
2023/08/15 07:03:26;;;;;;;11.03;9.90;;;;;;;23.71;69.09;96296.41;5087019;28;20197;-69
2023/08/15 07:05:52;;;;;;;33.80;14.90;;;;;;;23.95;68.57;96295.84;5087416;28;20260;-72
2023/08/15 07:08:17;;;;;;;12.43;9.90;;;;;;;24.03;68.38;96298.63;5087239;28;20220;-71
2023/08/15 07:10:43;;;;;;;15.33;9.63;;;;;;;24.30;67.30;96300.34;5087237;28;20264;-73
2023/08/15 07:13:09;;;;;;;18.80;11.23;;;;;;;24.36;66.73;96290.03;5071225;28;20481;-68
2023/08/15 07:15:34;;;;;;;11.30;9.53;;;;;;;24.45;66.48;96291.75;5067263;28;20457;-70
2023/08/15 07:17:59;;;;;;;12.27;10.90;;;;;;;24.60;65.88;96284.84;5066597;28;20209;-71
2023/08/15 07:20:25;;;;;;;12.03;10.73;;;;;;;24.63;65.97;96281.84;5066292;28;20248;-71
2023/08/15 07:22:51;;;;;;;15.70;10.17;;;;;;;25.44;63.94;96279.78;5067029;28;20602;-70
2023/08/15 07:25:16;;;;;;;10.80;9.80;;;;;;;26.16;61.46;96274.75;5066868;28;20185;-71
2023/08/15 07:27:42;;;;;;;12.10;9.20;;;;;;;26.87;59.27;96275.06;5066883;28;20171;-71
2023/08/15 07:30:08;;;;;;;12.47;8.90;;;;;;;27.34;57.67;96277.78;5066217;28;20205;-71
2023/08/15 07:32:36;;;;;;;11.93;9.20;;;;;;;27.94;55.79;96275.47;5066850;28;20166;-71
2023/08/15 07:35:03;;;;;;;15.00;9.80;;;;;;;27.66;56.06;96276.78;5066588;28;20419;-70
2023/08/15 07:37:28;;;;;;;9.27;8.50;;;;;;;27.58;56.63;96276.81;5066623;28;21006;-71
2023/08/15 07:39:58;;;;;;;14.83;9.40;;;;;;;27.38;57.25;96283.66;5066180;28;20435;-70
2023/08/15 07:42:25;;;;;;;10.53;9.40;;;;;;;27.17;58.25;96282.38;5066536;28;20170;-70
2023/08/15 07:44:51;;;;;;;16.40;10.77;;;;;;;26.90;59.43;96280.91;5066502;28;20407;-71
2023/08/15 07:47:16;;;;;;;15.00;13.03;;;;;;;26.80;59.96;96286.50;5066426;28;20967;-71
2023/08/15 07:49:41;;;;;;;13.07;11.80;;;;;;;26.77;60.20;96286.00;5066040;28;20196;-71
2023/08/15 07:52:07;;;;;;;16.90;12.47;;;;;;;26.68;60.45;96298.63;5066367;28;20258;-71
2023/08/15 07:54:32;;;;;;;17.57;13.63;;;;;;;26.36;61.29;96299.44;5066387;28;20178;-70
2023/08/15 07:56:58;;;;;;;21.80;12.23;;;;;;;26.27;61.90;96300.47;5066145;28;20646;-70
2023/08/15 07:59:23;;;;;;;12.70;11.40;;;;;;;26.23;62.05;96299.13;5066026;28;20240;-70
2023/08/15 08:01:48;;;;;;;19.73;10.70;;;;;;;26.14;62.44;96303.66;5067996;28;20173;-70
2023/08/15 08:04:14;;;;;;;12.83;11.53;;;;;;;26.15;62.34;96302.63;5070513;28;20212;-70
2023/08/15 08:06:39;;;;;;;17.30;12.90;;;;;;;26.22;62.26;96298.28;5070559;28;20190;-70
2023/08/15 08:09:05;;;;;;;13.20;11.73;;;;;;;26.69;61.08;96303.00;5070031;28;20186;-71
2023/08/15 08:11:31;;;;;;;11.27;10.17;;;;;;;27.04;59.82;96306.31;5072943;28;20295;-71
2023/08/15 08:13:56;;;;;;;15.50;10.90;;;;;;;27.24;59.11;96313.03;5090905;28;20860;-71
2023/08/15 08:16:22;;;;;;;12.13;9.73;;;;;;;27.36;59.32;96315.34;5090419;28;20200;-71
2023/08/15 08:18:47;;;;;;;12.77;10.57;;;;;;;27.41;59.05;96311.09;5089858;28;20637;-69
2023/08/15 08:21:13;;;;;;;21.90;10.80;;;;;;;27.41;58.67;96311.09;5090337;28;20177;-70
2023/08/15 08:23:38;;;;;;;16.37;10.70;;;;;;;27.30;59.24;96306.09;5090207;28;20204;-71
2023/08/15 08:26:03;;;;;;;12.77;10.00;;;;;;;27.65;58.48;96306.63;5090104;28;20261;-73
2023/08/15 08:28:29;;;;;;;11.47;10.50;;;;;;;27.62;58.27;96317.75;5089777;28;20216;-69
2023/08/15 08:30:54;;;;;;;11.27;9.83;;;;;;;27.33;58.91;96318.38;5089773;28;20626;-73
2023/08/15 08:33:20;;;;;;;16.63;10.57;;;;;;;27.41;58.69;96316.50;5089967;28;20173;-71
2023/08/15 08:35:45;;;;;;;15.97;11.40;;;;;;;27.32;58.88;96316.69;5089903;28;20209;-71
2023/08/15 08:38:11;;;;;;;15.33;11.20;;;;;;;27.26;58.99;96317.38;5089276;28;20654;-71
2023/08/15 08:40:36;;;;;;;19.10;10.40;;;;;;;27.53;58.43;96322.34;5089457;28;20623;-72
2023/08/15 08:43:03;;;;;;;10.77;9.67;;;;;;;27.62;58.31;96320.47;5089708;28;20248;-71
2023/08/15 08:45:30;;;;;;;13.17;10.13;;;;;;;28.13;56.91;96322.72;5090146;28;20710;-73
2023/08/15 08:47:57;;;;;;;11.40;10.30;;;;;;;28.33;56.66;96325.81;5089300;28;20458;-71
2023/08/15 08:50:23;;;;;;;14.20;9.90;;;;;;;28.35;55.92;96324.59;5088999;28;20411;-71
2023/08/15 08:52:49;;;;;;;14.10;10.97;;;;;;;28.51;55.93;96315.53;5089315;28;20411;-71
2023/08/15 08:55:16;;;;;;;11.07;9.80;;;;;;;28.84;54.56;96318.81;5089431;28;20248;-69
2023/08/15 08:57:45;;;;;;;12.40;9.40;;;;;;;28.97;53.80;96312.78;5089329;28;20459;-72
2023/08/15 09:00:14;;;;;;;11.87;10.77;;;;;;;29.12;53.32;96315.50;5089039;28;20427;-72
2023/08/15 09:02:40;;;;;;;10.30;8.93;;;;;;;29.25;53.64;96317.56;5089386;28;20403;-71
2023/08/15 09:05:07;;;;;;;11.30;9.40;;;;;;;28.93;53.57;96312.28;5089349;28;20548;-71
2023/08/15 09:07:34;;;;;;;11.60;8.97;;;;;;;28.85;53.28;96312.38;5089681;28;20571;-70
2023/08/15 09:10:00;;;;;;;12.87;7.77;;;;;;;28.71;52.65;96314.03;5088793;28;20434;-71
2023/08/15 09:12:32;;;;;;;11.20;8.60;;;;;;;28.57;53.30;96320.22;5078525;28;20771;-70
2023/08/15 09:14:57;;;;;;;21.03;9.57;;;;;;;28.47;53.38;96323.19;5068284;28;20408;-71
2023/08/15 09:17:26;;;;;;;9.60;8.40;;;;;;;28.39;54.87;96322.34;5068845;28;20520;-70
2023/08/15 09:19:53;;;;;;;13.37;9.53;;;;;;;28.32;54.77;96330.34;5068219;28;20189;-70
2023/08/15 09:22:22;;;;;;;14.17;8.77;;;;;;;28.35;54.75;96324.59;5068949;28;20406;-71
2023/08/15 09:24:47;;;;;;;10.90;8.77;;;;;;;28.79;54.30;96317.66;5068658;28;20430;-70
2023/08/15 09:27:13;;;;;;;15.83;8.60;;;;;;;29.17;53.10;96323.06;5068653;28;20412;-70
2023/08/15 09:29:38;;;;;;;10.97;7.20;;;;;;;29.19;52.38;96316.44;5068230;28;20474;-71
2023/08/15 09:32:05;;;;;;;10.40;8.03;;;;;;;29.22;51.61;96318.78;5068360;28;20252;-72
2023/08/15 09:34:30;;;;;;;12.90;8.00;;;;;;;29.38;52.61;96325.03;5068471;28;20174;-70
2023/08/15 09:36:56;;;;;;;10.53;8.20;;;;;;;29.23;52.35;96320.47;5068429;28;20408;-70
2023/08/15 09:39:22;;;;;;;10.03;8.10;;;;;;;29.03;52.94;96336.34;5068457;28;20205;-70
2023/08/15 09:41:48;;;;;;;11.53;8.30;;;;;;;29.00;52.32;96323.19;5070524;28;20298;-70
2023/08/15 09:44:29;;;;;;;10.30;9.13;;;;;;;28.92;52.96;96317.88;5077539;28;20462;-71
2023/08/15 09:46:55;;;;;;;10.97;9.17;;;;;;;29.27;52.40;96319.06;5077232;28;20702;-70
2023/08/15 09:49:21;;;;;;;10.70;8.70;;;;;;;29.81;50.94;96320.59;5072053;28;20430;-70
2023/08/15 09:51:48;;;;;;;12.50;8.90;;;;;;;30.13;49.33;96311.19;5072416;28;20407;-71
2023/08/15 09:54:16;;;;;;;11.67;8.63;;;;;;;30.43;47.63;96308.41;5071659;28;20418;-70
2023/08/15 09:56:42;;;;;;;9.23;7.70;;;;;;;30.62;45.92;96306.09;5070133;28;20412;-69
2023/08/15 09:59:08;;;;;;;11.17;6.20;;;;;;;30.42;44.34;96305.88;5067985;28;20841;-70
2023/08/15 10:01:37;;;;;;;7.80;6.50;;;;;;;30.28;44.17;96313.03;5068175;28;20408;-70
2023/08/15 10:04:07;;;;;;;7.83;4.63;;;;;;;30.19;39.69;96309.59;5067941;28;20173;-70
2023/08/15 10:06:34;;;;;;;9.50;5.00;;;;;;;30.03;38.45;96315.25;5067970;28;20423;-69
2023/08/15 10:09:02;;;;;;;8.57;3.93;;;;;;;29.96;35.23;96312.47;5067467;28;20473;-70
2023/08/15 10:11:33;;;;;;;5.67;4.00;;;;;;;29.72;37.73;96324.47;5070006;28;20413;-70
2023/08/15 10:13:59;;;;;;;6.97;4.30;;;;;;;29.56;35.46;96320.06;5088208;28;20888;-70
2023/08/15 10:16:26;;;;;;;8.07;3.13;;;;;;;29.52;34.91;96324.16;5088259;28;20778;-70
2023/08/15 10:18:56;;;;;;;6.23;3.43;;;;;;;29.54;35.31;96324.81;5087670;28;20824;-70
2023/08/15 10:21:23;;;;;;;14.23;4.17;;;;;;;29.55;35.31;96324.66;5088368;28;20870;-70
2023/08/15 10:23:52;;;;;;;8.07;4.13;;;;;;;29.54;35.80;96330.25;5088000;28;20955;-71
2023/08/15 10:26:17;;;;;;;7.50;4.70;;;;;;;29.61;36.20;96325.75;5087998;28;20510;-70
2023/08/15 10:28:45;;;;;;;10.23;4.50;;;;;;;29.60;36.06;96321.38;5087619;28;20552;-70
2023/08/15 10:31:11;;;;;;;9.03;5.03;;;;;;;29.58;36.51;96314.50;5087965;28;20164;-70
2023/08/15 10:33:37;;;;;;;8.57;3.73;;;;;;;29.58;36.60;96309.91;5087909;28;20911;-70
2023/08/15 10:36:02;;;;;;;11.70;5.30;;;;;;;29.59;35.86;96316.16;5088257;28;20180;-70
2023/08/15 10:38:37;;;;;;;15.00;4.20;;;;;;;29.58;35.71;96311.78;5088139;28;20454;-69
2023/08/15 10:41:06;;;;;;;8.37;4.03;;;;;;;29.59;35.17;96318.84;5087449;28;20179;-70
2023/08/15 10:43:36;;;;;;;5.47;3.70;;;;;;;30.09;35.10;96318.00;5088005;28;20418;-69
2023/08/15 10:46:04;;;;;;;24.07;5.87;;;;;;;30.50;34.27;96308.47;5088077;28;20402;-70
2023/08/15 10:48:47;;;;;;;12.03;4.80;;;;;;;30.50;33.91;96314.72;5087906;28;20880;-70
2023/08/15 10:51:25;;;;;;;12.20;4.10;;;;;;;30.35;33.56;96314.78;5087804;28;20411;-70
2023/08/15 10:53:52;;;;;;;9.67;4.20;;;;;;;30.38;33.52;96311.69;5090220;28;21025;-70
2023/08/15 10:56:19;;;;;;;7.27;4.20;;;;;;;30.30;33.87;96313.69;5091026;28;20407;-71
2023/08/15 10:58:46;;;;;;;9.27;4.10;;;;;;;30.17;34.06;96319.78;5090714;28;20623;-70
2023/08/15 11:01:15;;;;;;;6.67;3.77;;;;;;;29.97;33.87;96317.69;5091029;28;20407;-71
2023/08/15 11:03:42;;;;;;;13.77;4.40;;;;;;;29.81;34.25;96333.31;5093668;28;20467;-70
2023/08/15 11:06:12;;;;;;;9.23;4.00;;;;;;;29.64;34.76;96325.38;5095440;28;20406;-70
2023/08/15 11:08:42;;;;;;;4.70;3.63;;;;;;;29.38;34.99;96323.16;5093973;28;20446;-70
2023/08/15 11:11:09;;;;;;;5.37;3.73;;;;;;;29.37;35.01;96323.34;5087700;28;20415;-70
2023/08/15 11:13:42;;;;;;;5.87;3.20;;;;;;;29.27;34.33;96329.88;5067672;28;20446;-70
2023/08/15 11:16:08;;;;;;;6.83;3.50;;;;;;;29.10;34.45;96329.22;5067468;28;20909;-71
2023/08/15 11:18:35;;;;;;;5.73;3.47;;;;;;;28.95;35.05;96332.88;5067108;28;20467;-71
2023/08/15 11:21:01;;;;;;;6.60;3.50;;;;;;;28.90;35.05;96328.88;5066935;28;20407;-71